Time;durP1;ratioP1;P1;durP2;ratioP2;P2;SDS_P1;SDS_P2;PMS_P1;PMS_P2;Temp;Humidity;BMP_temperature;BMP_pressure;BME280_temperature;BME280_humidity;BME280_pressure;Samples;Min_cycle;Max_cycle;Signal;HPM_P1;HPM_P2
2022/07/05 00:00:56;;;;;;;4.70;4.33;;;20.90;99.90;;;;;;6278380;28;20686;-67
2022/07/05 00:03:59;;;;;;;5.13;4.53;;;21.00;99.90;;;;;;6277254;28;20241;-67
2022/07/05 00:07:21;;;;;;;8.67;4.57;;;21.10;99.90;;;;;;6277327;28;20219;-67
2022/07/05 00:10:24;;;;;;;6.87;4.53;;;21.10;99.90;;;;;;6277215;28;20224;-67
2022/07/05 00:13:27;;;;;;;5.40;4.90;;;21.10;99.90;;;;;;6277445;28;20196;-68
2022/07/05 00:16:32;;;;;;;7.00;4.80;;;21.10;99.90;;;;;;6277970;28;20212;-67
2022/07/05 00:19:35;;;;;;;4.67;4.27;;;21.10;99.90;;;;;;6278054;28;20230;-67
2022/07/05 00:22:38;;;;;;;5.03;4.27;;;21.10;99.90;;;;;;6277901;28;20219;-67
2022/07/05 00:25:41;;;;;;;4.93;4.43;;;21.20;99.90;;;;;;6277739;28;20529;-67
2022/07/05 00:28:44;;;;;;;4.43;4.00;;;21.00;99.90;;;;;;6277478;28;20554;-68
2022/07/05 00:31:49;;;;;;;4.80;4.40;;;20.90;99.90;;;;;;6277733;28;20287;-68
2022/07/05 00:34:52;;;;;;;4.33;3.93;;;20.90;99.90;;;;;;6277298;28;20564;-67
2022/07/05 00:37:55;;;;;;;5.00;4.60;;;20.80;99.90;;;;;;6277094;28;20227;-67
2022/07/05 00:40:58;;;;;;;4.43;4.03;;;20.80;99.90;;;;;;6277333;28;20219;-67
2022/07/05 00:44:04;;;;;;;5.23;4.37;;;20.80;99.90;;;;;;6277362;28;20246;-67
2022/07/05 00:47:11;;;;;;;4.90;4.47;;;20.80;99.90;;;;;;6277233;28;20232;-67
2022/07/05 00:50:14;;;;;;;6.50;4.97;;;20.70;99.90;;;;;;6272293;28;20587;-67
2022/07/05 00:53:17;;;;;;;5.87;4.90;;;20.60;99.90;;;;;;6276835;28;20697;-67
2022/07/05 00:56:21;;;;;;;6.00;5.10;;;20.60;99.90;;;;;;6277313;28;20228;-68
2022/07/05 00:59:24;;;;;;;4.83;4.47;;;20.60;99.90;;;;;;6275958;28;20228;-66
2022/07/05 01:02:29;;;;;;;4.60;4.30;;;20.50;99.90;;;;;;6276412;28;20223;-66
2022/07/05 01:05:33;;;;;;;4.93;4.50;;;20.60;99.90;;;;;;6276933;28;20550;-66
2022/07/05 01:08:39;;;;;;;6.33;4.20;;;20.70;99.90;;;;;;6276560;28;20687;-66
2022/07/05 01:11:43;;;;;;;4.60;4.10;;;20.80;99.90;;;;;;6276397;28;20227;-66
2022/07/05 01:14:46;;;;;;;4.73;4.40;;;20.80;99.90;;;;;;6276282;28;20223;-67
2022/07/05 01:17:52;;;;;;;5.03;4.63;;;20.80;99.90;;;;;;6276164;28;20228;-66
2022/07/05 01:20:55;;;;;;;4.93;4.37;;;20.70;99.90;;;;;;6276184;28;20312;-66
2022/07/05 01:24:00;;;;;;;3.73;3.43;;;20.70;99.90;;;;;;6276452;28;20228;-66
2022/07/05 01:27:04;;;;;;;4.70;4.30;;;20.70;99.90;;;;;;6276312;28;20232;-66
2022/07/05 01:30:08;;;;;;;4.70;4.40;;;20.70;99.90;;;;;;6276471;28;20228;-66
2022/07/05 01:33:11;;;;;;;4.77;4.37;;;20.70;99.90;;;;;;6275965;28;20231;-66
2022/07/05 01:36:14;;;;;;;5.30;4.90;;;20.70;99.90;;;;;;6276168;28;20228;-68
2022/07/05 01:39:19;;;;;;;7.30;5.80;;;20.70;99.90;;;;;;6275583;28;20669;-67
2022/07/05 01:42:23;;;;;;;5.40;4.27;;;20.70;99.90;;;;;;6276187;28;20227;-67
2022/07/05 01:48:57;;;;;;;7.60;5.00;;;20.70;99.90;;;;;;6264466;28;20326;-67
2022/07/05 01:52:04;;;;;;;5.23;4.73;;;20.60;99.90;;;;;;6275127;28;20236;-66
2022/07/05 01:55:09;;;;;;;5.20;4.67;;;20.60;99.90;;;;;;6275529;28;20232;-67
2022/07/05 01:58:13;;;;;;;5.30;4.90;;;20.60;99.90;;;;;;6270639;28;20708;-67
2022/07/05 02:01:16;;;;;;;7.23;4.90;;;20.50;99.90;;;;;;6275497;28;20219;-68
2022/07/05 02:04:19;;;;;;;5.87;5.37;;;20.40;99.90;;;;;;6275358;28;20687;-67
2022/07/05 02:07:23;;;;;;;6.20;5.70;;;20.40;99.90;;;;;;6300297;28;20227;-67
2022/07/05 02:10:27;;;;;;;7.40;6.70;;;20.30;99.90;;;;;;6300210;28;20230;-67
2022/07/05 02:13:30;;;;;;;7.83;7.03;;;20.20;99.90;;;;;;6299867;28;20529;-67
2022/07/05 02:16:34;;;;;;;7.47;6.50;;;20.20;99.90;;;;;;6300044;28;20208;-67
2022/07/05 02:19:39;;;;;;;5.47;4.97;;;20.10;99.90;;;;;;6299781;28;20223;-67
2022/07/05 02:22:42;;;;;;;5.50;5.07;;;19.90;99.90;;;;;;6300046;28;20237;-66
2022/07/05 02:25:47;;;;;;;5.60;4.97;;;19.70;99.90;;;;;;6300111;28;20227;-66
2022/07/05 02:28:50;;;;;;;5.47;5.07;;;19.70;99.90;;;;;;6299705;28;20231;-66
2022/07/05 02:31:53;;;;;;;6.50;6.00;;;19.80;99.90;;;;;;6300220;28;20226;-66
2022/07/05 02:34:56;;;;;;;5.33;4.93;;;19.90;99.90;;;;;;6299980;28;20223;-67
2022/07/05 02:37:59;;;;;;;4.90;4.50;;;20.00;99.90;;;;;;6299372;28;20305;-67
2022/07/05 02:41:07;;;;;;;4.93;4.50;;;20.10;99.90;;;;;;6299684;28;20222;-67
2022/07/05 02:44:10;;;;;;;6.47;4.30;;;20.20;99.90;;;;;;6299805;28;20234;-67
2022/07/05 02:47:13;;;;;;;5.03;4.70;;;20.10;99.90;;;;;;6299848;28;20223;-67
2022/07/05 02:50:16;;;;;;;5.77;4.80;;;20.10;99.90;;;;;;6299577;28;20571;-67
2022/07/05 02:53:19;;;;;;;5.03;4.63;;;20.20;99.90;;;;;;6299858;28;20219;-68
2022/07/05 02:56:24;;;;;;;4.90;4.50;;;20.20;99.90;;;;;;6299747;28;20231;-68
2022/07/05 02:59:27;;;;;;;4.63;4.33;;;20.20;99.90;;;;;;6290141;28;20231;-67
2022/07/05 03:02:31;;;;;;;5.50;5.10;;;20.20;99.90;;;;;;6303917;28;20333;-67
2022/07/05 03:05:34;;;;;;;6.20;4.97;;;20.20;99.90;;;;;;6304341;28;20238;-67
2022/07/05 03:08:37;;;;;;;5.70;5.03;;;20.20;99.90;;;;;;6304102;28;20551;-67
2022/07/05 03:11:42;;;;;;;4.87;4.57;;;20.20;99.90;;;;;;6304141;28;20266;-67
2022/07/05 03:14:45;;;;;;;6.17;5.57;;;20.30;99.90;;;;;;6304285;28;20304;-67
2022/07/05 03:17:49;;;;;;;5.50;5.10;;;20.20;99.90;;;;;;6303852;28;20226;-67
2022/07/05 03:20:52;;;;;;;6.37;5.87;;;20.20;99.90;;;;;;6303986;28;20581;-67
2022/07/05 03:23:55;;;;;;;6.20;5.67;;;20.30;99.90;;;;;;6304327;28;20307;-67
2022/07/05 03:27:00;;;;;;;7.17;5.43;;;20.30;99.90;;;;;;6303840;28;20738;-67
2022/07/05 03:30:05;;;;;;;7.17;6.47;;;20.40;99.90;;;;;;6303534;28;20235;-67
2022/07/05 03:33:08;;;;;;;7.00;6.27;;;20.40;99.90;;;;;;6303991;28;20239;-67
2022/07/05 03:36:11;;;;;;;7.23;6.63;;;20.40;99.90;;;;;;6303649;28;20250;-67
2022/07/05 03:39:15;;;;;;;6.13;5.67;;;20.40;99.90;;;;;;6303661;28;20627;-67
2022/07/05 03:42:19;;;;;;;6.40;5.80;;;20.40;99.90;;;;;;6303377;28;20588;-67
2022/07/05 03:45:22;;;;;;;7.07;6.43;;;20.40;99.90;;;;;;6303636;28;20266;-67
2022/07/05 03:48:26;;;;;;;6.50;6.00;;;20.40;99.90;;;;;;6303302;28;20242;-66
2022/07/05 03:51:44;;;;;;;6.40;6.00;;;20.40;99.90;;;;;;6303676;28;20705;-67
2022/07/05 03:54:48;;;;;;;6.13;5.63;;;20.40;99.90;;;;;;6303061;28;20227;-67
2022/07/05 03:57:52;;;;;;;7.47;6.77;;;20.40;99.90;;;;;;6302467;28;20254;-65
2022/07/05 04:00:56;;;;;;;7.23;6.63;;;20.50;99.90;;;;;;6303281;28;20231;-66
2022/07/05 04:03:59;;;;;;;8.07;7.37;;;20.50;99.90;;;;;;6298367;28;20288;-66
2022/07/05 04:07:02;;;;;;;7.30;6.80;;;20.40;99.90;;;;;;6302855;28;20234;-66
2022/07/05 04:10:07;;;;;;;7.37;6.80;;;20.40;99.90;;;;;;6302750;28;20231;-66
2022/07/05 04:13:11;;;;;;;7.40;6.70;;;20.40;99.90;;;;;;6302029;28;20258;-66
2022/07/05 04:16:15;;;;;;;6.80;6.30;;;20.50;99.90;;;;;;6302864;28;20231;-66
2022/07/05 04:19:18;;;;;;;5.67;5.37;;;20.50;99.90;;;;;;6302738;28;20239;-66
2022/07/05 04:22:21;;;;;;;6.50;6.00;;;20.60;99.90;;;;;;6302262;28;20231;-66
2022/07/05 04:25:24;;;;;;;6.63;6.13;;;20.60;99.90;;;;;;6302461;28;20628;-66
2022/07/05 04:28:30;;;;;;;8.90;7.47;;;20.60;99.90;;;;;;6302208;28;20223;-67
2022/07/05 04:31:34;;;;;;;7.30;6.70;;;20.60;99.90;;;;;;6302413;28;20227;-66
2022/07/05 04:34:38;;;;;;;7.43;6.83;;;20.60;99.90;;;;;;6302661;28;20265;-67
2022/07/05 04:37:42;;;;;;;7.07;6.40;;;20.70;99.90;;;;;;6302689;28;20211;-67
2022/07/05 04:40:45;;;;;;;7.93;7.33;;;20.70;99.90;;;;;;6302121;28;20261;-67
2022/07/05 04:43:49;;;;;;;6.63;6.10;;;20.80;99.90;;;;;;6302141;28;20227;-67
2022/07/05 04:46:53;;;;;;;6.90;6.30;;;20.90;99.90;;;;;;6302383;28;20249;-67
2022/07/05 04:49:57;;;;;;;7.30;6.57;;;20.90;99.90;;;;;;6302084;28;20227;-67
2022/07/05 04:53:00;;;;;;;6.70;6.00;;;20.80;99.90;;;;;;6301773;28;20657;-67
2022/07/05 04:56:05;;;;;;;7.43;6.83;;;20.90;99.90;;;;;;6302124;28;20223;-67
2022/07/05 04:59:09;;;;;;;6.70;6.10;;;21.00;99.90;;;;;;6301807;28;20241;-64
2022/07/05 05:02:12;;;;;;;7.40;6.37;;;21.10;99.90;;;;;;6301710;28;20245;-63
2022/07/05 05:05:16;;;;;;;6.10;5.60;;;21.10;99.90;;;;;;6301689;28;20685;-64
2022/07/05 05:08:19;;;;;;;7.07;6.50;;;21.10;99.90;;;;;;6301601;28;20227;-65
2022/07/05 05:11:22;;;;;;;6.80;6.30;;;21.20;99.90;;;;;;6301267;28;20657;-64
2022/07/05 05:14:27;;;;;;;6.90;6.20;;;21.00;99.90;;;;;;6301831;28;20223;-64
2022/07/05 05:17:36;;;;;;;5.33;4.93;;;21.10;99.90;;;;;;6301517;28;20684;-64
2022/07/05 05:20:39;;;;;;;6.30;5.70;;;21.20;99.90;;;;;;6301055;28;20285;-65
2022/07/05 05:23:43;;;;;;;6.40;5.80;;;21.20;99.90;;;;;;6300207;28;20631;-66
2022/07/05 05:26:47;;;;;;;7.50;7.00;;;21.30;99.90;;;;;;6300655;28;20263;-64
2022/07/05 05:29:51;;;;;;;6.77;6.27;;;21.50;99.90;;;;;;6300725;28;20231;-64
2022/07/05 05:32:54;;;;;;;7.80;7.10;;;21.70;99.90;;;;;;6300625;28;20231;-65
2022/07/05 05:35:57;;;;;;;8.43;7.73;;;21.80;99.90;;;;;;6300792;28;20231;-65
2022/07/05 05:39:01;;;;;;;8.40;7.70;;;21.80;99.90;;;;;;6300829;28;20231;-65
2022/07/05 05:42:05;;;;;;;6.50;6.10;;;21.70;99.90;;;;;;6300613;28;20542;-65
2022/07/05 05:45:11;;;;;;;7.40;6.90;;;21.80;99.90;;;;;;6300645;28;20241;-64
2022/07/05 05:48:14;;;;;;;8.47;7.83;;;21.90;99.90;;;;;;6300676;28;20703;-67
2022/07/05 05:51:17;;;;;;;10.13;8.10;;;22.00;99.90;;;;;;6300543;28;20234;-66
2022/07/05 05:54:20;;;;;;;8.33;6.90;;;22.00;99.90;;;;;;6300318;28;20230;-65
2022/07/05 05:57:23;;;;;;;6.83;6.30;;;22.10;99.90;;;;;;6300393;28;20246;-66
2022/07/05 06:00:28;;;;;;;7.00;6.33;;;22.20;99.90;;;;;;6300452;28;20245;-66
2022/07/05 06:03:31;;;;;;;6.37;5.87;;;22.30;99.90;;;;;;6300419;28;20226;-66
2022/07/05 06:06:34;;;;;;;7.00;5.80;;;22.40;99.90;;;;;;6300167;28;20294;-65
2022/07/05 06:09:37;;;;;;;6.53;5.93;;;22.50;99.90;;;;;;6300109;28;20241;-65
2022/07/05 06:12:41;;;;;;;6.73;6.23;;;22.50;99.90;;;;;;6299953;28;20341;-65
2022/07/05 06:15:46;;;;;;;6.13;5.53;;;22.50;99.90;;;;;;6300407;28;20231;-66
2022/07/05 06:18:49;;;;;;;7.40;6.77;;;22.50;99.90;;;;;;6300519;28;20246;-65
2022/07/05 06:21:52;;;;;;;7.50;6.90;;;22.70;99.90;;;;;;6300183;28;20234;-65
2022/07/05 06:25:02;;;;;;;6.83;6.23;;;22.70;99.90;;;;;;6299531;28;20692;-67
2022/07/05 06:28:25;;;;;;;6.40;6.00;;;22.70;99.90;;;;;;6299602;28;20239;-66
2022/07/05 06:31:29;;;;;;;6.30;5.80;;;22.80;99.90;;;;;;6299889;28;20209;-65
2022/07/05 06:34:33;;;;;;;6.87;6.20;;;22.90;99.90;;;;;;6299874;28;20207;-67
2022/07/05 06:37:43;;;;;;;7.00;6.40;;;22.90;99.90;;;;;;6300079;28;20540;-67
2022/07/05 06:40:47;;;;;;;6.80;6.10;;;23.00;99.90;;;;;;6299838;28;21045;-65
2022/07/05 06:43:50;;;;;;;6.10;5.60;;;23.00;99.90;;;;;;6300034;28;20233;-66
2022/07/05 06:46:54;;;;;;;6.87;5.93;;;23.20;99.90;;;;;;6299596;28;20306;-66
2022/07/05 06:49:58;;;;;;;5.83;5.33;;;23.20;99.90;;;;;;6299518;28;20555;-68
2022/07/05 06:53:01;;;;;;;7.00;6.47;;;23.30;99.90;;;;;;6299284;28;20567;-66
2022/07/05 06:56:05;;;;;;;6.43;5.93;;;23.40;99.90;;;;;;6299990;28;20227;-64
2022/07/05 06:59:08;;;;;;;6.90;6.20;;;23.60;99.90;;;;;;6299150;28;20261;-65
2022/07/05 07:02:33;;;;;;;6.40;5.90;;;23.70;99.90;;;;;;6299662;28;20234;-64
2022/07/05 07:05:36;;;;;;;6.60;6.00;;;23.90;99.90;;;;;;6299317;28;20660;-64
2022/07/05 07:12:20;;;;;;;7.20;6.70;;;24.20;99.90;;;;;;6298897;28;20243;-65
2022/07/05 07:15:23;;;;;;;5.63;5.20;;;24.30;99.90;;;;;;6294947;28;20675;-64
2022/07/05 07:18:28;;;;;;;6.20;5.70;;;24.20;99.90;;;;;;6298877;28;20581;-64
2022/07/05 07:21:33;;;;;;;6.43;5.83;;;24.30;99.90;;;;;;6299321;28;20238;-65
2022/07/05 07:24:37;;;;;;;6.60;6.10;;;24.20;99.90;;;;;;6299165;28;20227;-65
2022/07/05 07:27:44;;;;;;;6.60;6.00;;;24.10;99.90;;;;;;6299056;28;20231;-65
2022/07/05 07:30:47;;;;;;;6.80;6.30;;;23.90;99.90;;;;;;6298743;28;20566;-65
2022/07/05 07:33:52;;;;;;;6.00;5.50;;;23.90;99.90;;;;;;6298334;28;20250;-65
2022/07/05 07:36:56;;;;;;;6.53;6.00;;;23.80;99.90;;;;;;6298299;28;20219;-65
2022/07/05 07:40:00;;;;;;;7.20;6.60;;;23.90;99.90;;;;;;6295793;28;20231;-65
2022/07/05 07:43:04;;;;;;;7.27;6.67;;;23.80;99.90;;;;;;6298873;28;20231;-65
2022/07/05 07:46:12;;;;;;;7.17;6.40;;;23.80;99.90;;;;;;6298309;28;20687;-65
2022/07/05 07:49:17;;;;;;;7.00;6.30;;;23.70;99.90;;;;;;6301281;28;20242;-65
2022/07/05 07:52:20;;;;;;;7.23;6.40;;;24.00;99.90;;;;;;6303201;28;20578;-65
2022/07/05 07:55:23;;;;;;;7.10;6.40;;;24.30;99.90;;;;;;6302832;28;20211;-65
2022/07/05 07:58:26;;;;;;;7.43;6.80;;;24.60;99.90;;;;;;6302940;28;20249;-65
2022/07/05 08:01:31;;;;;;;7.60;6.90;;;24.70;99.90;;;;;;6303530;28;20203;-65
2022/07/05 08:04:35;;;;;;;6.47;5.97;;;24.90;99.90;;;;;;6303091;28;20199;-65
2022/07/05 08:07:38;;;;;;;5.47;4.87;;;25.10;99.90;;;;;;6303406;28;20209;-64
2022/07/05 08:10:42;;;;;;;5.30;4.80;;;25.10;99.90;;;;;;6303252;28;20313;-65
2022/07/05 08:13:45;;;;;;;5.30;4.80;;;25.10;99.90;;;;;;6302785;28;20226;-65
2022/07/05 08:16:49;;;;;;;6.53;6.00;;;25.10;99.90;;;;;;6298864;28;20231;-64
2022/07/05 08:23:16;;;;;;;5.73;5.23;;;24.90;99.90;;;;;;6302864;28;20247;-64
2022/07/05 08:26:19;;;;;;;4.63;4.33;;;24.80;99.90;;;;;;6302851;28;20234;-64
2022/07/05 08:29:22;;;;;;;4.60;4.30;;;24.90;99.90;;;;;;6302748;28;20226;-65
2022/07/05 08:32:26;;;;;;;4.03;3.73;;;24.90;99.90;;;;;;6302927;28;20680;-64
2022/07/05 08:35:30;;;;;;;5.20;4.70;;;25.20;99.90;;;;;;6304646;28;20694;-64
2022/07/05 08:38:33;;;;;;;4.33;4.03;;;25.50;99.90;;;;;;6308832;28;20313;-65
2022/07/05 08:41:38;;;;;;;4.10;3.70;;;25.70;99.90;;;;;;6302906;28;20245;-65
2022/07/05 08:44:44;;;;;;;3.33;3.03;;;25.90;99.90;;;;;;6302772;28;20230;-65
2022/07/05 08:47:49;;;;;;;4.43;3.07;;;26.10;99.90;;;;;;6302419;28;20227;-66
2022/07/05 08:50:57;;;;;;;3.27;2.97;;;26.30;99.90;;;;;;6302630;28;20238;-66
2022/07/05 08:54:01;;;;;;;3.10;2.80;;;26.40;99.90;;;;;;6302164;28;20521;-65
2022/07/05 08:57:05;;;;;;;2.87;2.57;;;26.70;99.80;;;;;;6302108;28;20226;-63
2022/07/05 09:00:15;;;;;;;4.83;2.40;;;27.00;99.00;;;;;;6300503;28;20560;-64
2022/07/05 09:03:23;;;;;;;3.73;2.30;;;27.20;97.90;;;;;;6302377;28;20699;-65
2022/07/05 09:06:29;;;;;;;2.43;1.70;;;27.30;98.50;;;;;;6302969;28;20230;-64
2022/07/05 09:09:34;;;;;;;2.13;1.57;;;27.70;96.40;;;;;;6302135;28;20234;-64
2022/07/05 09:12:38;;;;;;;1.60;1.50;;;27.90;96.00;;;;;;6302425;28;20222;-64
2022/07/05 09:15:41;;;;;;;2.30;1.77;;;28.20;94.40;;;;;;6303207;28;20230;-64
2022/07/05 09:18:46;;;;;;;1.70;1.60;;;28.30;93.80;;;;;;6303200;28;20238;-64
2022/07/05 09:22:02;;;;;;;1.00;0.90;;;28.60;93.00;;;;;;6301075;28;20648;-66
2022/07/05 09:25:17;;;;;;;3.80;1.50;;;28.70;92.00;;;;;;6301232;28;20542;-64
2022/07/05 09:28:21;;;;;;;2.37;1.30;;;28.70;92.20;;;;;;6300860;28;20231;-64
2022/07/05 09:31:28;;;;;;;1.67;1.50;;;28.80;91.90;;;;;;6275679;28;20219;-65
2022/07/05 09:34:34;;;;;;;1.50;1.40;;;28.80;91.30;;;;;;6275834;28;20219;-65
2022/07/05 09:37:44;;;;;;;1.73;1.63;;;28.80;91.30;;;;;;6275459;28;20195;-65
2022/07/05 09:40:49;;;;;;;1.70;1.60;;;29.00;91.70;;;;;;6234315;22;20224;-64
2022/07/05 09:43:52;;;;;;;2.57;1.70;;;29.20;91.00;;;;;;6230429;28;20512;-63
2022/07/05 09:47:09;;;;;;;1.77;1.53;;;29.70;90.70;;;;;;6247092;28;20224;-64
2022/07/05 09:50:13;;;;;;;1.97;1.40;;;29.90;88.20;;;;;;6233165;28;20232;-64
2022/07/05 09:53:18;;;;;;;1.20;1.10;;;29.90;87.20;;;;;;6243338;28;20232;-63
2022/07/05 09:56:23;;;;;;;1.20;1.10;;;30.00;86.20;;;;;;6226249;28;20243;-65
2022/07/05 09:59:26;;;;;;;1.40;1.23;;;29.80;86.20;;;;;;6225684;28;20232;-65
2022/07/05 10:02:42;;;;;;;1.73;1.10;;;29.60;86.70;;;;;;6226320;28;20242;-65
2022/07/05 10:05:45;;;;;;;0.97;0.87;;;29.40;88.10;;;;;;6226085;28;20228;-63
2022/07/05 10:08:51;;;;;;;1.10;0.90;;;29.20;86.90;;;;;;6225452;28;20561;-64
2022/07/05 10:11:55;;;;;;;0.70;0.70;;;29.10;84.30;;;;;;6226114;28;20234;-64
2022/07/05 10:15:00;;;;;;;1.10;1.00;;;28.80;84.00;;;;;;6228573;28;20242;-64
2022/07/05 10:18:06;;;;;;;2.17;0.97;;;28.60;85.50;;;;;;6227999;28;20290;-64
2022/07/05 10:21:14;;;;;;;1.80;0.90;;;28.60;85.00;;;;;;6226576;28;20247;-65
2022/07/05 10:24:20;;;;;;;1.97;1.10;;;28.40;83.40;;;;;;6225960;28;20229;-66
2022/07/05 10:27:25;;;;;;;2.00;1.00;;;28.30;86.40;;;;;;6216665;28;20228;-66
2022/07/05 10:30:28;;;;;;;1.23;1.00;;;28.80;85.50;;;;;;6225161;28;20246;-64
2022/07/05 10:33:33;;;;;;;1.00;0.80;;;29.30;83.30;;;;;;6224281;28;20259;-66
2022/07/05 10:36:38;;;;;;;1.60;0.60;;;29.70;80.80;;;;;;6219038;28;20232;-66
2022/07/05 10:39:43;;;;;;;0.97;0.60;;;29.90;79.30;;;;;;6225053;28;20236;-66
2022/07/05 10:42:49;;;;;;;1.20;0.57;;;30.00;78.30;;;;;;6225351;28;20235;-66
2022/07/05 10:45:52;;;;;;;1.20;0.90;;;30.00;77.10;;;;;;6225067;28;20231;-66
2022/07/05 10:49:11;;;;;;;0.60;0.40;;;29.80;77.60;;;;;;6224966;28;20663;-66
2022/07/05 10:52:24;;;;;;;1.10;0.70;;;29.60;78.90;;;;;;6225124;28;20577;-66
2022/07/05 10:55:29;;;;;;;1.00;0.70;;;29.70;77.50;;;;;;6224512;28;20379;-65
2022/07/05 10:58:33;;;;;;;1.30;0.87;;;29.50;76.80;;;;;;6225297;28;20242;-67
2022/07/05 11:01:39;;;;;;;1.30;0.90;;;29.60;77.70;;;;;;6242134;28;20219;-65
2022/07/05 11:04:43;;;;;;;0.70;0.53;;;29.70;78.20;;;;;;6249566;28;20275;-65
2022/07/05 11:07:59;;;;;;;0.93;0.80;;;29.60;77.30;;;;;;6249125;28;20338;-66
2022/07/05 11:11:13;;;;;;;1.73;0.80;;;29.50;76.20;;;;;;6249789;28;20234;-66
2022/07/05 11:14:33;;;;;;;0.70;0.50;;;29.40;76.50;;;;;;6249211;28;20765;-66
2022/07/05 11:17:36;;;;;;;1.23;0.70;;;29.50;76.40;;;;;;6247648;28;20232;-66
2022/07/05 11:21:17;;;;;;;0.80;0.40;;;29.50;75.60;;;;;;6249615;28;20227;-68
2022/07/05 11:24:22;;;;;;;0.80;0.60;;;29.50;74.40;;;;;;6253420;28;20234;-67
2022/07/05 11:27:27;;;;;;;1.10;0.77;;;29.50;74.40;;;;;;6244516;28;20228;-66
2022/07/05 11:30:30;;;;;;;3.57;1.00;;;29.50;73.70;;;;;;6248158;28;20688;-65
2022/07/05 11:33:38;;;;;;;1.10;0.60;;;29.40;73.40;;;;;;6252244;28;20251;-66
2022/07/05 11:36:42;;;;;;;3.30;0.80;;;29.50;74.40;;;;;;6252567;28;20236;-65
2022/07/05 11:39:47;;;;;;;1.63;0.90;;;29.70;73.90;;;;;;6250968;28;20279;-65
2022/07/05 11:42:52;;;;;;;1.73;0.60;;;29.80;73.50;;;;;;6251889;28;20677;-65
2022/07/05 11:45:59;;;;;;;0.70;0.60;;;29.90;72.90;;;;;;6251972;28;20310;-65
2022/07/05 11:49:03;;;;;;;0.80;0.50;;;29.90;72.00;;;;;;6252168;28;20708;-65
2022/07/05 11:52:06;;;;;;;0.77;0.57;;;29.60;72.20;;;;;;6252466;28;20235;-65
2022/07/05 11:55:10;;;;;;;0.80;0.53;;;29.50;72.20;;;;;;6253613;28;20232;-65
2022/07/05 11:58:15;;;;;;;0.90;0.70;;;29.50;70.40;;;;;;6253582;28;20242;-65
2022/07/05 12:01:18;;;;;;;2.77;0.63;;;29.50;71.20;;;;;;6253205;28;20239;-65
2022/07/05 12:04:23;;;;;;;1.40;0.70;;;29.60;72.60;;;;;;6253548;28;20695;-65
2022/07/05 12:07:27;;;;;;;1.00;0.70;;;29.70;70.20;;;;;;6253120;28;20227;-65
2022/07/05 12:14:10;;;;;;;0.70;0.60;;;29.70;71.10;;;;;;6253401;28;20295;-65
2022/07/05 12:17:14;;;;;;;1.00;0.90;;;29.60;68.00;;;;;;6252977;28;20378;-66
2022/07/05 12:20:27;;;;;;;1.47;0.80;;;29.40;68.60;;;;;;6253078;28;20228;-66
2022/07/05 12:23:30;;;;;;;1.00;0.90;;;29.20;66.50;;;;;;6252838;28;20239;-65
2022/07/05 12:26:33;;;;;;;1.53;0.87;;;29.00;68.20;;;;;;6252948;28;20227;-65
2022/07/05 12:29:38;;;;;;;1.20;1.03;;;29.00;66.70;;;;;;6252842;28;20232;-66
2022/07/05 12:32:58;;;;;;;0.80;0.80;;;28.90;65.80;;;;;;6252304;28;20571;-65
2022/07/05 12:36:01;;;;;;;1.23;1.13;;;28.80;66.50;;;;;;6252411;28;20251;-65
2022/07/05 12:39:04;;;;;;;1.70;1.00;;;28.80;65.90;;;;;;6252340;28;20551;-65
2022/07/05 12:42:08;;;;;;;1.20;1.10;;;28.80;64.90;;;;;;6253306;28;20240;-64
2022/07/05 12:45:14;;;;;;;1.90;0.97;;;28.70;65.60;;;;;;6252987;28;20247;-64
2022/07/05 12:48:17;;;;;;;1.10;0.90;;;28.70;63.50;;;;;;6252228;28;20370;-64
2022/07/05 12:51:34;;;;;;;0.80;0.80;;;28.80;64.00;;;;;;6252395;28;20239;-64
2022/07/05 12:58:04;;;;;;;1.47;0.90;;;29.00;63.50;;;;;;6251991;28;20224;-64
2022/07/05 13:01:21;;;;;;;1.33;1.20;;;29.10;62.90;;;;;;6251827;28;20219;-65
2022/07/05 13:04:24;;;;;;;6.80;3.77;;;29.20;64.00;;;;;;6252114;28;20228;-65
2022/07/05 13:07:28;;;;;;;1.57;1.47;;;29.20;63.50;;;;;;6234069;28;20551;-64
2022/07/05 13:10:47;;;;;;;1.37;1.27;;;29.30;63.00;;;;;;6227666;28;20230;-65
2022/07/05 13:13:50;;;;;;;2.60;1.67;;;29.30;62.20;;;;;;6227394;28;20225;-66
2022/07/05 13:16:55;;;;;;;1.50;1.40;;;29.30;61.90;;;;;;6227113;28;20552;-65
2022/07/05 13:19:59;;;;;;;1.60;1.50;;;29.10;61.70;;;;;;6229954;28;20228;-65
2022/07/05 13:23:02;;;;;;;1.60;1.50;;;28.90;60.80;;;;;;6244820;28;20223;-64
2022/07/05 13:26:06;;;;;;;1.87;1.70;;;28.90;61.50;;;;;;6251608;28;20227;-64
2022/07/05 13:29:09;;;;;;;1.70;1.60;;;28.90;62.50;;;;;;6245064;28;20587;-64
2022/07/05 13:32:15;;;;;;;1.63;1.53;;;28.90;62.40;;;;;;6225676;28;20243;-64
2022/07/05 13:35:18;;;;;;;3.57;1.67;;;28.90;61.80;;;;;;6226036;28;20696;-66
2022/07/05 13:38:21;;;;;;;2.50;2.10;;;28.80;62.30;;;;;;6224715;28;20236;-65
2022/07/05 13:41:24;;;;;;;1.50;1.40;;;28.80;62.00;;;;;;6225316;28;20715;-65
2022/07/05 13:44:27;;;;;;;2.40;1.80;;;28.80;63.10;;;;;;6225337;28;20235;-65
2022/07/05 13:47:32;;;;;;;1.80;1.70;;;28.80;62.90;;;;;;6226169;28;20228;-65
2022/07/05 13:50:37;;;;;;;1.97;1.70;;;28.80;61.40;;;;;;6226243;28;20240;-66
2022/07/05 13:53:40;;;;;;;2.30;1.90;;;28.80;61.30;;;;;;6226222;28;20693;-65
2022/07/05 13:56:43;;;;;;;2.20;2.00;;;28.70;61.90;;;;;;6226681;28;20375;-65
2022/07/05 13:59:54;;;;;;;2.33;2.00;;;28.70;61.30;;;;;;6239058;28;20232;-65
2022/07/05 14:02:58;;;;;;;2.27;1.93;;;28.70;61.70;;;;;;6252175;28;20728;-65
2022/07/05 14:06:08;;;;;;;2.70;2.50;;;28.80;62.20;;;;;;6245034;28;20240;-65
2022/07/05 14:09:11;;;;;;;2.60;2.20;;;28.70;61.60;;;;;;6240831;28;20662;-65
2022/07/05 14:12:14;;;;;;;2.67;2.47;;;28.60;62.10;;;;;;6250706;28;20235;-65
2022/07/05 14:15:17;;;;;;;2.50;2.30;;;28.70;61.40;;;;;;6250348;28;20234;-65
2022/07/05 14:18:24;;;;;;;2.80;2.23;;;28.60;60.50;;;;;;6250069;28;20704;-65
2022/07/05 14:21:27;;;;;;;3.60;2.07;;;28.40;59.00;;;;;;6250284;28;20227;-65
2022/07/05 14:24:40;;;;;;;2.80;2.40;;;28.20;58.80;;;;;;6250638;28;20697;-66
2022/07/05 14:27:43;;;;;;;2.93;2.67;;;28.20;58.00;;;;;;6250383;28;20231;-65
2022/07/05 14:30:47;;;;;;;5.20;2.50;;;28.20;61.10;;;;;;6250178;28;20246;-65
2022/07/05 14:33:52;;;;;;;2.80;2.33;;;28.30;62.50;;;;;;6231156;28;20224;-65
2022/07/05 14:36:55;;;;;;;62.20;29.80;;;28.40;59.50;;;;;;6225386;28;20659;-62
2022/07/05 14:39:58;;;;;;;36.30;20.43;;;28.40;63.90;;;;;;6223177;28;20232;-63
2022/07/05 14:43:02;;;;;;;10.60;8.93;;;28.30;63.40;;;;;;6241594;28;20228;-63
2022/07/05 14:46:07;;;;;;;3.03;2.40;;;28.30;61.70;;;;;;6249342;28;20283;-66
2022/07/05 14:49:12;;;;;;;2.67;2.47;;;28.10;59.30;;;;;;6227078;28;20228;-65
2022/07/05 14:52:16;;;;;;;3.83;2.63;;;28.20;59.00;;;;;;6248018;28;20224;-66
2022/07/05 14:55:19;;;;;;;2.50;2.40;;;28.30;59.20;;;;;;6251244;28;20227;-65
2022/07/05 14:58:22;;;;;;;2.10;2.00;;;28.40;58.60;;;;;;6256206;28;20254;-71
2022/07/05 15:01:25;;;;;;;2.87;2.60;;;28.40;58.60;;;;;;6263804;28;20234;-67
2022/07/05 15:04:30;;;;;;;2.60;2.40;;;28.40;57.50;;;;;;6256850;28;20225;-66
2022/07/05 15:07:33;;;;;;;2.00;1.90;;;28.40;57.40;;;;;;6238786;28;20317;-65
2022/07/05 15:10:36;;;;;;;2.30;2.20;;;28.50;57.10;;;;;;6231311;28;20239;-65
2022/07/05 15:13:39;;;;;;;2.67;2.10;;;28.50;57.20;;;;;;6221234;28;20207;-65
2022/07/05 15:16:42;;;;;;;2.50;2.30;;;28.50;57.40;;;;;;6233158;28;20684;-65
2022/07/05 15:19:47;;;;;;;2.37;1.73;;;28.50;56.80;;;;;;6232935;28;20366;-65
2022/07/05 15:22:50;;;;;;;2.30;2.10;;;28.60;57.30;;;;;;6232283;28;20228;-65
2022/07/05 15:25:54;;;;;;;3.20;2.40;;;28.50;56.60;;;;;;6233425;28;20227;-70
2022/07/05 15:29:04;;;;;;;3.97;2.40;;;28.50;56.60;;;;;;6232847;28;20234;-65
2022/07/05 15:32:08;;;;;;;2.53;2.33;;;28.50;56.20;;;;;;6232429;28;20232;-66
2022/07/05 15:35:14;;;;;;;2.90;2.70;;;28.60;54.80;;;;;;6232671;28;20239;-66
2022/07/05 15:38:17;;;;;;;2.10;2.00;;;28.70;56.10;;;;;;6232313;28;20574;-67
2022/07/05 15:41:20;;;;;;;2.50;2.30;;;28.60;55.40;;;;;;6232341;28;20689;-65
2022/07/05 15:44:23;;;;;;;2.57;2.40;;;28.50;56.10;;;;;;6233955;28;20231;-65
2022/07/05 15:47:27;;;;;;;2.97;2.30;;;28.50;56.20;;;;;;6234073;28;20232;-68
2022/07/05 15:50:32;;;;;;;2.33;2.23;;;28.50;56.20;;;;;;6242521;28;20314;-65
2022/07/05 15:53:35;;;;;;;2.23;2.13;;;28.50;55.90;;;;;;6241816;28;20234;-65
2022/07/05 15:56:39;;;;;;;2.07;1.87;;;28.60;56.80;;;;;;6256316;28;20661;-68
2022/07/05 15:59:42;;;;;;;2.20;2.10;;;28.50;54.50;;;;;;6257133;28;20245;-64
2022/07/05 16:02:46;;;;;;;2.67;2.47;;;28.60;55.80;;;;;;6257129;28;20231;-66
2022/07/05 16:05:50;;;;;;;2.10;2.00;;;28.70;54.90;;;;;;6256726;28;20219;-66
2022/07/05 16:08:53;;;;;;;2.10;2.00;;;28.70;54.30;;;;;;6250971;28;20234;-65
2022/07/05 16:11:56;;;;;;;2.73;2.20;;;28.50;54.50;;;;;;6240808;28;20558;-65
2022/07/05 16:15:00;;;;;;;4.10;2.07;;;28.30;53.50;;;;;;6204271;28;20235;-66
2022/07/05 16:18:03;;;;;;;3.40;1.97;;;28.20;54.40;;;;;;6232002;28;20235;-65